Electron Alley

Oops — I Never Saw It Do That Before . . . .

Archive for August 2011

Erie Effects: July, 2011 – North

leave a comment »

Advertisements

Erie Effects: July, 2011 — East

leave a comment »

Erie Effects: 8/18 Barnstorm Dream Mixing Session

leave a comment »

MDA Stereo:  Width @ 58 Comb; Delay @ 10.34888 ms; Balance @ 0; Rate @ 3.16222

Mackie Stereo Channel:

Compressor:  Threshold @ -17 dB; Attack @ 19 ms; Gain @ +4.25 dB; Ratio @ 1.58:1; Release @ 356 ms

EQ:  Band 1: +4.1 dB @ 103 Hz; Band 2: -2.3 dB @ 205; Band 3: -1.8 dB @ 2.31 kHz; Band 4: +3.2 @ 5.72 kHz

Mackie Reverb – Medium Plate:  Blend @ 50%; Pre-Delay @ 5 ms; Decay @ 2.3 ms; Damping @ 16; Diffusion @ 6; Roll0off @ 14.1 kHz

Acuma Final Mix – Final Mix Setting

Erie Effects: 8/17 Barnstorm Dreams Recording Session

leave a comment »

Gibson SJ-200:  Mic @100% sound hole; Compression @ 20%

Erie Effects: July, 2011 Wx Log

leave a comment »

July 1

8:53 AM 72.0 °F 55.9 °F 57% 30.07 in 10.0 mi SE 5.8 mph – N/A Clear

METAR KLPR 011253Z AUTO 14005KT 10SM CLR 22/13 A3008 RMK AO2 SLP181 T02220133

Sunrise: 5:58am; Sunset: 9:06pm; Moonrise: 6:14am; Moonset: 9:23pm; New Moon: 3:55am; Day length: 15h 8m

July 2

8:11 AM 77.0 °F 66.2 °F 69% 30.05 in 10.0 mi SW 10.4 mph – N/A Mostly Cloudy

SPECI KLPR 021211Z AUTO 22009KT 10SM SCT080 BKN095 25/19 A3005 RMK AO2 LTG DSNT SW TSE05

Sunrise: 5:59am; Sunset: 9:06pm; Moonrise: 7:22am; Moonset: 10:01pm; Day length: 15h 8m

July 3

8:33 AM 73.4 °F 69.8 °F 88% 29.99 in 6.0 mi WSW 3.5 mph – N/A Overcast

SPECI KLPR 031233Z AUTO 25003KT 6SM BR OVC009 23/21 A2999 RMK AO2 $

Sunrise: 5:59am; Sunset: 9:06pm; Moonrise: 8:32am; Moonset: 10:36pm; Day length: 15h 7m

July 4

8:53 AM 75.0 °F 64.0 °F 69% 29.94 in 10.0 mi South 9.2 mph – N/A Clear

METAR KLPR 041253Z AUTO 17008KT 10SM CLR 24/18 A2996 RMK AO2 SLP138 T02390178

Sunrise: 6:00am; Sunset: 9:06pm; Moonrise: 9:44am; Moonset: 11:06pm; Day length: 15h 6m

July 5

8:53 AM 73.9 °F 60.1 °F 62% 30.01 in 10.0 mi SSW 3.5 mph – N/A Clear

METAR KLPR 051253Z AUTO 20003KT 10SM CLR 23/16 A3003 RMK AO2 SLP163 T02330156

Sunrise: 6:00am; Sunset: 9:06pm; Moonrise: 10:55am; Moonset: 11:36pm; Day length: 15h 5m

July 6

8:53 AM 75.0 °F 63.0 °F 66% 29.94 in 10.0 mi SW 6.9 mph – N/A Clear METAR KLPR 061253Z AUTO 22006KT 10SM CLR 24/17 A2996 RMK AO2 SLP139 T02390172

Sunrise: 6:01am; Sunset: 9:05pm; Moonrise: 12:07pm; Moonset: none; Day length: 15h 5m

July 7

8:53 AM 75.9 °F 66.9 °F 74% 29.99 in 10.0 mi ENE 8.1 mph – N/A Clear

METAR KLPR 071253Z AUTO 07007KT 10SM CLR 24/19 A3001 RMK AO2 SLP156 T02440194

Sunrise: 6:01am; Sunset: 9:05pm; Moonrise: 1:18pm; Moonset: 12:05am; Day length: 15h 4m

July 8

8:53 AM 72.0 °F 63.0 °F 73% 29.85 in 10.0 mi Calm Calm – 0.00 in Rain Light Rain

METAR KLPR 081253Z AUTO 00000KT 10SM -RA FEW043 22/17 A2986 RMK AO2 RAB41 SLP106 P0000 T02220172

Sunrise: 6:02am; Sunset: 9:05pm; Moonrise: 2:30pm; Moonset: 12:35am; First Qtr: 1:31am; Day length: 15h 3m

July 9

8:53 AM 73.0 °F – 66.0 °F 79% 29.99 in 8.0 mi Calm Calm – N/A Clear

METAR KLPR 091253Z AUTO 00000KT 8SM CLR 23/19 A3001 RMK AO2 SLP154 T02280189

Sunrise: 6:03am; Sunset: 9:04pm; Moonrise: 3:42pm; Moonset: 1:08am; Day length: 15h 2m

July 10

8:53 AM 77.0 °F – 64.0 °F 64% 30.04 in 10.0 mi SSW 5.8 mph – N/A Clear

METAR KLPR 101253Z AUTO 20005KT 10SM CLR 25/18 A3006 RMK AO2 SLP172 T02500178 $

Sunrise: 6:03am; Sunset: 9:04pm; Moonrise: 4:53pm; Moonset: 1:46am; Day length: 15h 1m

July 11

8:53 AM 81.0 °F 83.3 °F 66.9 °F 62% 29.93 in 9.0 mi SW 8.1 mph – N/A Clear

METAR KLPR 111253Z AUTO 23007KT 9SM CLR 27/19 A2995 RMK AO2 SLP133 T02720194

Sunrise: 6:04am; Sunset: 9:04pm; Moonrise: 6:00pm; Moonset: 2:31am; Day length: 14h 59m

July 12

8:53 AM 79.0 °F 71.1 °F 77% 29.89 in 10.0 mi WNW 5.8 mph – N/A Partly Cloudy

METAR KLPR 121253Z AUTO 29005KT 10SM FEW100 26/22 A2990 RMK AO2 SLP120 T02610217

Sunrise: 6:05am; Sunset: 9:03pm; Moonrise: 7:00pm; Moonset: 3:23am; Day length: 14h 58m

July 13

8:53 AM 72.0 °F 61.0 °F 68% 29.96 in 10.0 mi NNE 8.1 mph – N/A Clear

METAR KLPR 131253Z AUTO 03007KT 10SM CLR 22/16 A2998 RMK AO2 SLP146 T02220161

Sunrise: 6:06am; Sunset: 9:03pm; Moonrise: 7:52pm; Moonset: 4:22am; Day length: 14h 57m

July 14

8:53 AM 71.1 °F 57.9 °F 63% 30.11 in 10.0 mi East 5.8 mph – N/A Clear

METAR KLPR 141253Z AUTO 10005KT 10SM CLR 22/14 A3012 RMK AO2 SLP195 T02170144

Sunrise: 6:06am; Sunset: 9:02pm; Moonrise: 8:36pm; Moonset: 5:25am; Day length: 14h 56m

July 15

8:53 AM 70.0 °F 59.0 °F 68% 30.04 in 10.0 mi Calm Calm – N/A Clear

METAR KLPR 151253Z AUTO 00000KT 10SM CLR 21/15 A3006 RMK AO2 SLP173 T02110150

Sunrise: 6:07am; Sunset: 9:01pm; Moonrise: 9:12pm; Moonset: 6:31am; Full Moon: 1:41am; Day length: 14h 54m

July 16

8:53 AM 75.9 °F 63.0 °F 64% 30.09 in 10.0 mi SW 5.8 mph – N/A Clear

METAR KLPR 161253Z AUTO 22005KT 10SM CLR 24/17 A3011 RMK AO2 SLP189 T02440172

Sunrise: 6:08am; Sunset: 9:01pm; Moonrise: 9:43pm; Moonset: 7:37am; Day length: 14h 53m

July 17

8:53 AM 75.0 °F 69.1 °F 82% 30.16 in 5.0 mi South 6.9 mph – N/A Haze

METAR KLPR 171253Z AUTO 18006KT 5SM HZ CLR 24/21 A3018 RMK AO2 SLP212 T02390206

Sunrise: 6:09am; Sunset: 9:00pm; Moonrise: 10:10pm; Moonset: 8:41am; Day length: 14h 51m

July 18

8:53 AM 82.0 °F 86.3 °F 71.1 °F 69% 30.03 in 6.0 mi SW 8.1 mph – N/A Haze

METAR KLPR 181253Z AUTO 23007KT 6SM HZ CLR 28/22 A3005 RMK AO2 SLP168 T02780217

Sunrise: 6:10am; Sunset: 9:00pm; Moonrise: 10:35pm; Moonset: 9:43am; Day length: 14h 50m

July 19

8:12 AM 77.0 °F 73.4 °F 89% 29.89 in 10.0 mi SSW 5.8 mph – N/A Mostly Cloudy

SPECI KLPR 191212Z AUTO 20005KT 10SM BKN014 25/23 A2989 RMK AO2

Sunrise: 6:10am; Sunset: 8:59pm; Moonrise: 10:59pm; Moonset: 10:44am; Day length: 14h 48m

July 20

8:53 AM 79.0 °F 71.1 °F 77% 29.90 in 7.0 mi SSW 6.9 mph – N/A Clear

METAR KLPR 201253Z AUTO 21006KT 7SM CLR 26/22 A2992 RMK AO2 SLP123 T02610217

Sunrise: 6:11am; Sunset: 8:58pm; Moonrise: 11:23pm; Moonset: 11:43am; Day length: 14h 47m

July 21

8:53 AM 86.0 °F 95.1 °F 75.0 °F 70% 29.82 in 10.0 mi WSW 9.2 mph – N/A Clear

METAR KLPR 211253Z AUTO 25008KT 10SM CLR 30/24 A2984 RMK AO2 SLP097 T03000239

Sunrise: 6:12am; Sunset: 8:57pm; Moonrise: 11:48pm; Moonset: 12:42pm; Day length: 14h 45m

July 22

8:53 AM 84.0 °F 87.8 °F 69.1 °F 61% 29.94 in 10.0 mi Calm Calm – N/A Clear

METAR KLPR 221253Z AUTO 00000KT 10SM CLR 29/21 A2996 RMK AO2 SLP136 T02890206

Sunrise: 6:13am; Sunset: 8:57pm; Moonrise: none; Moonset: 1:41pm; Day length: 14h 44m

July 23

8:53 AM 75.9 °F – 73.0 °F 91% 29.99 in 10.0 mi West 5.8 mph – N/A Clear

METAR KLPR 231253Z AUTO 26005KT 10SM CLR 24/23 A3001 RMK AO2 LTG DSNT W AND NW SLP156 T02440228 $

Sunrise: 6:14am; Sunset: 8:56pm; Moonrise: 12:16am; Moonset: 2:40pm; Last Qtr: 12:03am; Day length: 14h 42m

July 24

8:53 AM 78.1 °F 73.0 °F 84% 30.00 in 10.0 mi West 5.8 mph – N/A Clear

METAR KLPR 241253Z AUTO 27005KT 10SM CLR 26/23 A3002 RMK AO2 SLP159 T02560228

Sunrise: 6:15am; Sunset: 8:55pm; Moonrise: 12:47am; Moonset: 3:40pm; Day length: 14h 40m

July 25

8:53 AM 78.1 °F 73.0 °F 84% 29.90 in 9.0 mi West 6.9 mph – N/A Partly Cloudy

METAR KLPR 251253Z AUTO 26006KT 9SM FEW095 26/23 A2992 RMK AO2 SLP124 T02560228

Sunrise: 6:16am; Sunset: 8:54pm; Moonrise: 1:24am; Moonset: 4:39pm; Day length: 14h 38m

July 26

8:53 AM 75.9 °F 66.0 °F 71% 29.82 in 10.0 mi West 6.9 mph – N/A Clear

METAR KLPR 261253Z AUTO 27006KT 10SM CLR 24/19 A2984 RMK AO2 SLP096 T02440189

Sunrise: 6:17am; Sunset: 8:53pm; Moonrise: 2:07am; Moonset: 5:36pm; Day length: 14h 36m

July 27

8:53 AM 72.0 °F 63.0 °F 73% 29.99 in 10.0 mi South 3.5 mph – N/A Clear

METAR KLPR 271253Z AUTO 17003KT 10SM CLR 22/17 A3001 RMK AO2 SLP156 T02220172

Sunrise: 6:18am; Sunset: 8:52pm; Moonrise: 2:58am; Moonset: 6:28pm; Day length: 14h 35m

July 28

8:53 AM 77.0 °F 71.1 °F 82% 29.96 in 8.0 mi SW 3.5 mph – 0.00 in Scattered Clouds

METAR KLPR 281253Z AUTO 23003KT 8SM FEW038 SCT110 25/22 A2998 RMK AO2 LTG DSNT E RAE02 SLP145 P0000 T02500217

Sunrise: 6:19am; Sunset: 8:51pm; Moonrise: 3:57am; Moonset: 7:16pm; Day length: 14h 33m

July 29

8:30 AM 75.2 °F 71.6 °F 89% 30.01 in 2.0 mi West 11.5 mph – 0.27 in Rain , Thunderstorm Heavy Rain

SPECI KLPR 291230Z AUTO 27010KT 2SM VCTS +RA BR BKN025 BKN038 OVC060 24/22 A3001 RMK AO2 VIS 1 1/4V4 LTG DSNT ALQDS TSB26 P0027

Sunrise: 6:20am; Sunset: 8:50pm; Moonrise: 5:03am; Moonset: 7:57pm; Day length: 14h 31m

July 30

8:29 AM 73.4 °F 71.6 °F 94% 30.10 in 3.0 mi Calm Calm – N/A Mostly Cloudy

SPECI KLPR 301229Z AUTO 00000KT 3SM BR FEW001 BKN008 23/22 A3010 RMK AO2

Sunrise: 6:21am; Sunset: 8:49pm; Moonrise: 6:13am; Moonset: 8:34pm; New Moon: 1:41pm; Day length: 14h 29m

July 31

8:53 AM 77.0 °F 64.9 °F 66% 30.13 in 10.0 mi WSW 4.6 mph – N/A Clear

METAR KLPR 311253Z AUTO 24004KT 10SM CLR 25/18 A3014 RMK AO2 SLP202 T02500183

Sunrise: 6:21am; Sunset: 8:48pm; Moonrise: 7:26am; Moonset: 9:07pm; Day length: 14h 27m

 Weather Data from this Great Site